Beiseker, Canada
Current Conditions -  °F | °C
As of 11:00 AM on Wednesday 28 Jan 2015 (Local Time) from CYYC Reporting Station
Few Clouds Few Clouds  
Wind Chill: 39°   Ceiling: Unl
Heat Index: 39°   Visibility: 40mi
Dew Point: 25°   Wind: 0mph
Humidity: 56%   Direction: NA
Pressure: 30.22"   Gusts: NA
Location:  51.38°N, 113.53°W
Report Text: CYYC 281800Z 00000KT 40SM FEW040 FEW100 04/M04 A3022 RMK SC1AC1 AC TR SLP276
Loading
Personal Weather Stations






























Interactive Weather Map New forecast layout! Learn more

10-Day Weather Forecast

Advertisements
Track Severe Weather on mobile